createdAt,value
2023-04-24T00:00:24.644Z,10.02
2023-04-24T00:02:52.250Z,10.04
2023-04-24T00:05:20.934Z,9.89
2023-04-24T00:07:48.118Z,10.08
2023-04-24T00:10:15.672Z,9.94
2023-04-24T00:12:42.877Z,9.96
2023-04-24T00:15:10.609Z,9.83
2023-04-24T00:17:38.300Z,9.72
2023-04-24T00:20:07.874Z,9.73
2023-04-24T00:22:35.198Z,9.88
2023-04-24T00:25:02.499Z,9.71
2023-04-24T00:27:29.782Z,9.79
2023-04-24T00:29:57.274Z,9.96
2023-04-24T00:32:24.750Z,9.70
2023-04-24T00:34:51.947Z,9.58
2023-04-24T00:37:19.132Z,9.50
2023-04-24T00:39:46.393Z,9.74
2023-04-24T00:42:13.659Z,9.78
2023-04-24T00:44:41.050Z,9.61
2023-04-24T00:47:08.485Z,9.63
2023-04-24T00:49:36.467Z,9.94
2023-04-24T00:52:08.539Z,9.81
2023-04-24T00:54:36.519Z,9.77
2023-04-24T00:57:04.204Z,9.55
2023-04-24T00:59:31.873Z,9.39
2023-04-24T01:01:59.443Z,9.24
2023-04-24T01:04:27.324Z,9.37
2023-04-24T01:06:56.340Z,9.37
2023-04-24T01:09:24.721Z,9.64
2023-04-24T01:11:52.215Z,9.59
2023-04-24T01:14:19.533Z,9.74
2023-04-24T01:16:47.600Z,9.72
2023-04-24T01:19:16.493Z,9.67
2023-04-24T01:21:44.283Z,9.43
2023-04-24T01:24:11.784Z,9.57
2023-04-24T01:26:39.398Z,9.52
2023-04-24T01:29:06.896Z,9.54
2023-04-24T01:31:35.563Z,9.44
2023-04-24T01:34:03.694Z,9.45
2023-04-24T01:36:32.632Z,9.64
2023-04-24T01:38:59.944Z,9.56
2023-04-24T01:41:27.587Z,9.39
2023-04-24T01:43:55.033Z,9.43
2023-04-24T01:46:23.671Z,9.65
2023-04-24T01:48:52.231Z,9.52
2023-04-24T01:51:20.708Z,9.73
2023-04-24T01:53:48.009Z,9.68
2023-04-24T01:56:15.328Z,9.76
2023-04-24T01:58:42.810Z,9.67
2023-04-24T02:01:10.246Z,9.74
2023-04-24T02:03:37.778Z,9.51
2023-04-24T02:06:05.338Z,9.56
2023-04-24T02:08:32.692Z,9.78
2023-04-24T02:10:59.871Z,9.68
2023-04-24T02:13:27.127Z,9.75
2023-04-24T02:15:54.313Z,9.61
2023-04-24T02:18:21.687Z,9.74
2023-04-24T02:20:48.933Z,10.08
2023-04-24T02:23:16.230Z,9.80
2023-04-24T02:25:43.512Z,9.87
2023-04-24T02:28:10.806Z,9.85
2023-04-24T02:30:38.005Z,9.99
2023-04-24T02:33:05.474Z,9.86
2023-04-24T02:35:32.933Z,9.96
2023-04-24T02:38:00.418Z,9.86
2023-04-24T02:40:27.652Z,9.68
2023-04-24T02:42:54.894Z,9.61
2023-04-24T02:45:22.204Z,9.70
2023-04-24T02:47:49.523Z,9.61
2023-04-24T02:50:16.791Z,9.48
2023-04-24T02:52:44.247Z,9.50
2023-04-24T02:55:11.592Z,9.64
2023-04-24T02:57:38.964Z,9.53
2023-04-24T03:00:08.221Z,9.45
2023-04-24T03:02:35.732Z,9.53
2023-04-24T03:05:03.457Z,9.64
2023-04-24T03:07:30.750Z,9.45
2023-04-24T03:10:00.431Z,9.51
2023-04-24T03:12:27.674Z,9.26
2023-04-24T03:14:54.866Z,9.36
2023-04-24T03:17:22.214Z,9.53
2023-04-24T03:19:49.629Z,9.69
2023-04-24T03:22:17.079Z,9.71
2023-04-24T03:24:44.298Z,9.76
2023-04-24T03:27:11.826Z,9.70
2023-04-24T03:29:56.623Z,9.70
2023-04-24T03:32:30.334Z,9.77
2023-04-24T03:34:57.622Z,9.90
2023-04-24T03:37:25.109Z,9.77
2023-04-24T03:40:03.387Z,9.65
2023-04-24T03:42:30.924Z,9.64
2023-04-24T03:44:58.162Z,9.59
2023-04-24T03:47:31.059Z,9.65
2023-04-24T03:50:01.908Z,9.73
2023-04-24T03:52:29.624Z,9.73
2023-04-24T03:54:56.950Z,9.92
2023-04-24T03:57:25.875Z,9.78
2023-04-24T04:00:22.600Z,9.52
2023-04-24T04:03:02.383Z,9.71
2023-04-24T04:05:30.535Z,9.44
2023-04-24T04:07:57.991Z,9.36
2023-04-24T04:10:25.456Z,9.35
2023-04-24T04:12:52.642Z,9.59
2023-04-24T04:15:20.021Z,9.57
2023-04-24T04:17:47.962Z,9.66
2023-04-24T04:20:15.213Z,9.51
2023-04-24T04:22:44.492Z,9.44
2023-04-24T04:25:15.958Z,9.47
2023-04-24T04:27:44.134Z,9.63
2023-04-24T04:30:13.820Z,9.56
2023-04-24T04:32:51.218Z,9.34
2023-04-24T04:35:18.781Z,9.38
2023-04-24T04:37:46.808Z,9.35
2023-04-24T04:40:28.183Z,9.52
2023-04-24T04:43:01.482Z,9.44
2023-04-24T04:45:35.522Z,9.53
2023-04-24T04:48:21.528Z,9.68
2023-04-24T04:50:48.863Z,9.77
2023-04-24T04:53:16.282Z,9.54
2023-04-24T04:55:43.702Z,9.71
2023-04-24T04:58:15.067Z,9.82
2023-04-24T05:00:42.520Z,9.63
2023-04-24T05:03:21.199Z,9.66
2023-04-24T05:05:54.863Z,9.66
2023-04-24T05:10:52.592Z,9.79
2023-04-24T05:13:28.306Z,9.63
2023-04-24T05:16:06.897Z,9.71
2023-04-24T05:18:35.337Z,9.77
2023-04-24T05:21:03.006Z,9.92
2023-04-24T05:23:30.378Z,9.71
2023-04-24T05:25:58.676Z,9.65
2023-04-24T05:28:29.358Z,9.28
2023-04-24T05:31:05.717Z,9.21
2023-04-24T05:33:33.141Z,9.19
2023-04-24T05:36:00.563Z,9.59
2023-04-24T05:38:28.417Z,9.44
2023-04-24T05:40:55.830Z,9.32
2023-04-24T05:43:23.109Z,9.62
2023-04-24T05:45:50.835Z,9.51
2023-04-24T05:48:19.162Z,9.37
2023-04-24T05:50:48.294Z,9.52
2023-04-24T05:53:15.666Z,9.47
2023-04-24T05:55:43.044Z,9.74
2023-04-24T05:58:10.477Z,9.99
2023-04-24T06:00:40.235Z,9.76
2023-04-24T06:03:10.221Z,9.75
2023-04-24T06:05:38.287Z,9.98
2023-04-24T06:08:05.732Z,9.85
2023-04-24T06:10:37.065Z,9.77
2023-04-24T06:13:05.592Z,10.04
2023-04-24T06:15:34.493Z,9.98
2023-04-24T06:18:08.593Z,10.07
2023-04-24T06:20:37.248Z,9.88
2023-04-24T06:23:04.654Z,10.04
2023-04-24T06:25:34.219Z,9.87
2023-04-24T06:28:02.622Z,9.81
2023-04-24T06:30:31.416Z,9.79
2023-04-24T06:33:03.102Z,10.04
2023-04-24T06:35:39.293Z,9.96
2023-04-24T06:38:07.002Z,9.96
2023-04-24T06:40:34.552Z,10.05
2023-04-24T06:43:03.778Z,10.30
2023-04-24T06:45:31.170Z,10.40
2023-04-24T06:47:58.557Z,10.54
2023-04-24T06:50:26.139Z,11.51
2023-04-24T06:52:53.684Z,12.11
2023-04-24T06:55:20.934Z,12.00
2023-04-24T06:57:48.231Z,11.46
2023-04-24T07:00:17.089Z,11.16
2023-04-24T07:02:45.059Z,11.28
2023-04-24T07:05:13.772Z,11.00
2023-04-24T07:07:41.281Z,10.68
2023-04-24T07:10:09.588Z,10.59
2023-04-24T07:12:37.081Z,10.86
2023-04-24T07:15:06.444Z,11.09
2023-04-24T07:17:33.661Z,11.37
2023-04-24T07:20:01.031Z,11.25
2023-04-24T07:22:28.306Z,11.02
2023-04-24T07:24:55.820Z,11.09
2023-04-24T07:27:23.123Z,11.23
2023-04-24T07:29:51.694Z,11.33
2023-04-24T07:32:19.209Z,11.50
2023-04-24T07:34:46.927Z,11.37
2023-04-24T07:37:14.277Z,11.24
2023-04-24T07:39:42.448Z,11.46
2023-04-24T07:42:10.047Z,11.68
2023-04-24T07:44:37.552Z,11.43
2023-04-24T07:47:04.849Z,11.38
2023-04-24T07:49:32.199Z,11.36
2023-04-24T07:52:01.459Z,11.58
2023-04-24T07:54:29.623Z,11.67
2023-04-24T07:56:56.990Z,11.59
2023-04-24T07:59:24.263Z,11.64
2023-04-24T08:01:51.704Z,11.57
2023-04-24T08:04:19.552Z,11.52
2023-04-24T08:06:48.635Z,11.39
2023-04-24T08:09:16.112Z,11.42
2023-04-24T08:11:43.391Z,11.53
2023-04-24T08:14:10.808Z,11.80
2023-04-24T08:16:38.221Z,11.83
2023-04-24T08:19:05.474Z,11.97
2023-04-24T08:21:35.877Z,12.10
2023-04-24T08:24:06.189Z,11.92
2023-04-24T08:26:33.487Z,11.97
2023-04-24T08:29:00.780Z,12.29
2023-04-24T08:31:28.126Z,12.41
2023-04-24T08:33:55.440Z,12.35
2023-04-24T08:36:23.817Z,12.54
2023-04-24T08:38:54.095Z,12.74
2023-04-24T08:41:22.299Z,12.87
2023-04-24T08:43:50.871Z,12.65
2023-04-24T08:46:20.092Z,12.10
2023-04-24T08:48:47.891Z,12.22
2023-04-24T08:51:15.253Z,12.61
2023-04-24T08:53:42.664Z,12.85
2023-04-24T08:56:10.316Z,12.71
2023-04-24T08:58:38.201Z,12.92
2023-04-24T09:01:05.919Z,12.99
2023-04-24T09:03:34.651Z,13.15
2023-04-24T09:06:02.334Z,13.28
2023-04-24T09:08:30.869Z,13.64
2023-04-24T09:10:59.568Z,13.08
2023-04-24T09:13:27.605Z,12.60
2023-04-24T09:15:55.329Z,12.80
2023-04-24T09:18:22.758Z,13.02
2023-04-24T09:21:09.388Z,12.97
2023-04-24T09:23:36.938Z,13.08
2023-04-24T09:26:07.610Z,12.91
2023-04-24T09:28:40.558Z,12.83
2023-04-24T09:31:16.903Z,12.66
2023-04-24T09:33:58.446Z,12.60
2023-04-24T09:36:42.097Z,12.99
2023-04-24T09:39:14.769Z,13.28
2023-04-24T09:41:52.626Z,13.30
2023-04-24T09:44:24.267Z,13.06
2023-04-24T09:46:56.111Z,12.99
2023-04-24T09:49:25.768Z,13.15
2023-04-24T09:51:54.065Z,13.17
2023-04-24T09:54:22.771Z,12.85
2023-04-24T09:56:51.710Z,12.63
2023-04-24T09:59:20.420Z,12.61
2023-04-24T10:01:49.668Z,12.80
2023-04-24T10:04:25.485Z,12.97
2023-04-24T10:06:54.756Z,13.11
2023-04-24T10:09:27.404Z,13.19
2023-04-24T10:11:55.983Z,13.42
2023-04-24T10:14:25.148Z,13.56
2023-04-24T10:16:55.158Z,13.77
2023-04-24T10:19:24.046Z,13.80
2023-04-24T10:21:51.302Z,13.66
2023-04-24T10:24:21.582Z,13.72
2023-04-24T10:26:49.442Z,13.53
2023-04-24T10:29:20.096Z,13.78
2023-04-24T10:31:48.015Z,13.40
2023-04-24T10:34:17.506Z,13.32
2023-04-24T10:36:50.955Z,13.61
2023-04-24T10:39:18.787Z,13.87
2023-04-24T10:41:47.466Z,13.89
2023-04-24T10:44:16.761Z,14.01
2023-04-24T10:46:46.482Z,14.30
2023-04-24T10:49:13.918Z,14.49
2023-04-24T10:51:49.092Z,14.70
2023-04-24T10:54:30.926Z,14.92
2023-04-24T10:57:23.325Z,15.06
2023-04-24T10:59:52.086Z,14.71
2023-04-24T11:02:19.721Z,14.44
2023-04-24T11:04:47.444Z,14.50
2023-04-24T11:07:14.898Z,14.27
2023-04-24T11:09:44.260Z,13.89
2023-04-24T11:12:14.954Z,14.07
2023-04-24T11:15:11.726Z,14.11
2023-04-24T11:17:40.925Z,14.28
2023-04-24T11:20:25.590Z,14.22
2023-04-24T11:22:56.287Z,14.65
2023-04-24T11:25:24.069Z,15.32
2023-04-24T11:27:51.562Z,15.40
2023-04-24T11:30:20.686Z,15.51
2023-04-24T11:32:54.205Z,14.88
2023-04-24T11:35:26.039Z,15.38
2023-04-24T11:40:25.942Z,15.19
2023-04-24T11:42:56.427Z,14.99
2023-04-24T11:45:28.322Z,15.26
2023-04-24T11:47:55.746Z,15.35
2023-04-24T11:50:24.570Z,15.48
2023-04-24T11:52:52.057Z,15.55
2023-04-24T11:55:19.814Z,15.54
2023-04-24T11:57:51.458Z,15.85
2023-04-24T12:00:23.775Z,15.96
2023-04-24T12:02:51.711Z,16.10
2023-04-24T12:05:28.101Z,15.88
2023-04-24T12:07:55.849Z,15.96
2023-04-24T12:10:24.686Z,15.90
2023-04-24T12:12:52.766Z,16.07
2023-04-24T12:15:21.838Z,15.99
2023-04-24T12:17:49.450Z,16.15
2023-04-24T12:20:19.447Z,16.25
2023-04-24T12:22:55.886Z,16.31
2023-04-24T12:25:28.123Z,16.29
2023-04-24T12:27:56.403Z,16.42
2023-04-24T12:30:29.446Z,16.51
2023-04-24T12:32:59.148Z,15.92
2023-04-24T12:35:28.857Z,15.92
2023-04-24T12:37:56.332Z,15.40
2023-04-24T12:40:26.426Z,15.32
2023-04-24T12:42:54.397Z,15.23
2023-04-24T12:45:24.981Z,15.04
2023-04-24T12:47:52.319Z,15.12
2023-04-24T12:50:19.919Z,15.15
2023-04-24T12:52:47.422Z,15.29
2023-04-24T12:55:14.790Z,15.51
2023-04-24T12:57:42.205Z,15.91
2023-04-24T13:00:10.134Z,16.08
2023-04-24T13:02:37.803Z,16.44
2023-04-24T13:05:05.620Z,16.51
2023-04-24T13:07:32.825Z,16.49
2023-04-24T13:10:00.156Z,16.48
2023-04-24T13:12:27.647Z,15.71
2023-04-24T13:14:55.107Z,15.12
2023-04-24T13:17:22.874Z,15.20
2023-04-24T13:19:51.247Z,15.46
2023-04-24T13:22:21.811Z,15.72
2023-04-24T13:24:50.085Z,15.74
2023-04-24T13:27:17.801Z,15.96
2023-04-24T13:29:45.074Z,15.84
2023-04-24T13:32:12.682Z,15.73
2023-04-24T13:34:40.053Z,15.39
2023-04-24T13:37:09.052Z,15.35
2023-04-24T13:39:36.708Z,15.42
2023-04-24T13:42:05.054Z,15.43
2023-04-24T13:44:32.701Z,15.39
2023-04-24T13:47:00.051Z,15.50
2023-04-24T13:49:28.180Z,15.42
2023-04-24T13:51:56.755Z,15.39
2023-04-24T13:54:27.337Z,15.07
2023-04-24T13:56:54.731Z,15.43
2023-04-24T13:59:24.768Z,15.64
2023-04-24T14:01:52.155Z,15.78
2023-04-24T14:04:19.627Z,15.51
2023-04-24T14:06:47.037Z,15.65
2023-04-24T14:09:14.393Z,15.79
2023-04-24T14:11:41.953Z,15.79
2023-04-24T14:14:09.277Z,15.69
2023-04-24T14:16:36.864Z,15.94
2023-04-24T14:19:04.168Z,15.88
2023-04-24T14:21:31.730Z,15.59
2023-04-24T14:23:59.011Z,15.74
2023-04-24T14:26:26.296Z,15.72
2023-04-24T14:29:01.105Z,15.24
2023-04-24T14:31:34.865Z,15.28
2023-04-24T14:34:02.165Z,15.30
2023-04-24T14:36:29.480Z,15.49
2023-04-24T14:38:56.813Z,15.33
2023-04-24T14:41:24.084Z,15.46
2023-04-24T14:43:51.507Z,15.97
2023-04-24T14:46:19.192Z,16.21
2023-04-24T14:48:46.727Z,16.38
2023-04-24T14:51:13.967Z,16.39
2023-04-24T14:53:41.688Z,16.28
2023-04-24T14:56:09.056Z,15.55
2023-04-24T14:58:36.435Z,15.62
2023-04-24T15:01:03.744Z,15.50
2023-04-24T15:03:32.228Z,15.40
2023-04-24T15:05:59.797Z,14.94
2023-04-24T15:08:27.004Z,14.64
2023-04-24T15:10:54.447Z,14.52
2023-04-24T15:13:21.757Z,14.17
2023-04-24T15:15:48.986Z,13.96
2023-04-24T15:18:16.275Z,13.55
2023-04-24T15:20:43.737Z,13.57
2023-04-24T15:23:11.307Z,13.50
2023-04-24T15:25:39.225Z,13.71
2023-04-24T15:28:06.984Z,13.94
2023-04-24T15:30:34.561Z,13.87
2023-04-24T15:33:02.859Z,14.07
2023-04-24T15:35:30.213Z,14.34
2023-04-24T15:37:57.678Z,14.73
2023-04-24T15:40:25.033Z,14.80
2023-04-24T15:42:52.355Z,14.98
2023-04-24T15:45:19.788Z,15.00
2023-04-24T15:47:47.655Z,14.93
2023-04-24T15:50:17.070Z,14.79
2023-04-24T15:52:44.574Z,14.82
2023-04-24T15:55:12.404Z,15.22
2023-04-24T15:57:40.478Z,15.38
2023-04-24T16:00:09.751Z,15.46
2023-04-24T16:02:40.396Z,15.49
2023-04-24T16:05:08.742Z,15.36
2023-04-24T16:07:37.644Z,15.37
2023-04-24T16:10:05.447Z,14.98
2023-04-24T16:12:32.746Z,15.03
2023-04-24T16:15:00.148Z,15.18
2023-04-24T16:17:27.412Z,15.22
2023-04-24T16:19:54.683Z,14.94
2023-04-24T16:22:22.222Z,14.93
2023-04-24T16:24:49.533Z,14.54
2023-04-24T16:27:16.831Z,14.93
2023-04-24T16:29:44.344Z,15.12
2023-04-24T16:32:11.614Z,14.54
2023-04-24T16:34:38.870Z,14.50
2023-04-24T16:37:06.800Z,14.49
2023-04-24T16:39:35.000Z,14.48
2023-04-24T16:42:02.540Z,14.42
2023-04-24T16:44:29.831Z,14.05
2023-04-24T16:46:57.430Z,14.19
2023-04-24T16:49:24.923Z,14.43
2023-04-24T16:51:52.048Z,14.38
2023-04-24T16:54:21.348Z,14.62
2023-04-24T16:56:49.196Z,13.94
2023-04-24T16:59:16.443Z,13.85
2023-04-24T17:01:43.638Z,14.19
2023-04-24T17:04:11.306Z,14.30
2023-04-24T17:06:38.589Z,14.43
2023-04-24T17:09:05.971Z,14.65
2023-04-24T17:11:33.173Z,14.17
2023-04-24T17:14:00.823Z,13.79
2023-04-24T17:16:29.001Z,13.94
2023-04-24T17:18:56.317Z,14.18
2023-04-24T17:21:23.697Z,14.46
2023-04-24T17:23:51.116Z,14.50
2023-04-24T17:26:18.406Z,14.47
2023-04-24T17:28:46.174Z,14.70
2023-04-24T17:31:13.747Z,14.72
2023-04-24T17:33:41.254Z,14.85
2023-04-24T17:36:08.649Z,14.99
2023-04-24T17:38:36.532Z,15.12
2023-04-24T17:41:03.885Z,15.01
2023-04-24T17:43:31.201Z,14.82
2023-04-24T17:46:01.926Z,14.77
2023-04-24T17:48:29.372Z,14.80
2023-04-24T17:50:56.914Z,15.03
2023-04-24T17:53:24.256Z,14.36
2023-04-24T17:55:51.564Z,14.46
2023-04-24T17:58:19.378Z,14.59
2023-04-24T18:00:46.971Z,14.69
2023-04-24T18:03:14.458Z,14.82
2023-04-24T18:05:41.888Z,14.78
2023-04-24T18:08:09.198Z,14.88
2023-04-24T18:10:36.686Z,14.82
2023-04-24T18:13:05.232Z,14.90
2023-04-24T18:15:33.085Z,15.00
2023-04-24T18:18:00.447Z,14.85
2023-04-24T18:20:27.770Z,14.51
2023-04-24T18:25:27.023Z,14.43
2023-04-24T18:27:55.893Z,14.37
2023-04-24T18:30:24.480Z,14.42
2023-04-24T18:32:53.377Z,14.22
2023-04-24T18:35:21.713Z,14.06
2023-04-24T18:37:49.869Z,14.08
2023-04-24T18:40:17.619Z,14.31
2023-04-24T18:42:45.055Z,14.25
2023-04-24T18:45:14.858Z,14.12
2023-04-24T18:47:43.268Z,14.56
2023-04-24T18:50:11.174Z,14.57
2023-04-24T18:52:38.643Z,14.57
2023-04-24T18:55:07.082Z,14.68
2023-04-24T18:57:34.627Z,14.66
2023-04-24T19:00:02.101Z,14.66
2023-04-24T19:02:29.628Z,14.68
2023-04-24T19:04:57.009Z,14.31
2023-04-24T19:07:24.440Z,14.15
2023-04-24T19:09:51.879Z,14.13
2023-04-24T19:12:20.966Z,13.92
2023-04-24T19:14:49.608Z,13.75
2023-04-24T19:17:23.308Z,13.34
2023-04-24T19:19:51.246Z,12.84
2023-04-24T19:22:20.454Z,12.42
2023-04-24T19:24:47.870Z,12.01
2023-04-24T19:27:15.359Z,11.86
2023-04-24T19:29:42.962Z,12.02
2023-04-24T19:32:10.386Z,11.52
2023-04-24T19:34:39.729Z,11.47
2023-04-24T19:37:08.072Z,11.49
2023-04-24T19:39:35.280Z,11.61
2023-04-24T19:42:07.105Z,11.53
2023-04-24T19:44:35.037Z,11.73
2023-04-24T19:47:02.298Z,11.85
2023-04-24T19:49:29.638Z,12.06
2023-04-24T19:51:56.970Z,12.14
2023-04-24T19:54:24.714Z,12.05
2023-04-24T19:56:52.062Z,12.32
2023-04-24T19:59:19.504Z,12.40
2023-04-24T20:01:47.177Z,12.35
2023-04-24T20:04:14.553Z,12.34
2023-04-24T20:06:41.873Z,12.34
2023-04-24T20:09:09.966Z,12.20
2023-04-24T20:11:37.302Z,12.31
2023-04-24T20:14:04.775Z,12.34
2023-04-24T20:16:32.226Z,12.42
2023-04-24T20:18:59.676Z,12.56
2023-04-24T20:21:26.915Z,12.29
2023-04-24T20:23:54.226Z,12.17
2023-04-24T20:26:21.616Z,12.22
2023-04-24T20:28:49.216Z,12.22
2023-04-24T20:31:16.921Z,11.70
2023-04-24T20:33:45.584Z,11.45
2023-04-24T20:36:12.936Z,11.53
2023-04-24T20:38:40.171Z,11.56
2023-04-24T20:41:08.887Z,11.51
2023-04-24T20:43:36.545Z,11.55
2023-04-24T20:46:03.882Z,11.56
2023-04-24T20:48:31.491Z,11.32
2023-04-24T20:50:59.012Z,11.37
2023-04-24T20:53:26.320Z,11.49
2023-04-24T20:55:53.614Z,11.63
2023-04-24T20:58:22.064Z,11.55
2023-04-24T21:00:50.127Z,11.80
2023-04-24T21:03:18.918Z,11.70
2023-04-24T21:05:46.398Z,11.75
2023-04-24T21:08:13.904Z,11.84
2023-04-24T21:10:41.211Z,11.61
2023-04-24T21:13:08.900Z,11.90
2023-04-24T21:15:36.282Z,11.93
2023-04-24T21:18:04.181Z,11.94
2023-04-24T21:20:32.019Z,11.66
2023-04-24T21:22:59.243Z,11.44
2023-04-24T21:25:26.806Z,11.74
2023-04-24T21:27:54.337Z,11.71
2023-04-24T21:30:22.136Z,11.27
2023-04-24T21:32:49.464Z,11.49
2023-04-24T21:35:16.821Z,11.37
2023-04-24T21:37:44.294Z,11.14
2023-04-24T21:40:11.750Z,11.19
2023-04-24T21:42:39.610Z,11.52
2023-04-24T21:45:07.381Z,11.41
2023-04-24T21:47:34.726Z,11.54
2023-04-24T21:50:02.207Z,11.39
2023-04-24T21:52:29.447Z,11.22
2023-04-24T21:54:56.863Z,11.49
2023-04-24T21:57:24.165Z,11.18
2023-04-24T21:59:51.736Z,11.43
2023-04-24T22:02:19.160Z,11.27
2023-04-24T22:04:46.887Z,11.20
2023-04-24T22:07:14.977Z,11.12
2023-04-24T22:09:42.273Z,11.14
2023-04-24T22:12:09.924Z,11.46
2023-04-24T22:14:37.244Z,11.47
2023-04-24T22:17:04.902Z,11.19
2023-04-24T22:19:32.218Z,11.06
2023-04-24T22:21:59.518Z,11.04
2023-04-24T22:24:26.921Z,10.98
2023-04-24T22:26:54.159Z,11.23
2023-04-24T22:29:21.562Z,11.47
2023-04-24T22:31:49.284Z,11.62
2023-04-24T22:34:17.128Z,11.53
2023-04-24T22:36:44.422Z,11.33
2023-04-24T22:39:15.673Z,11.36
2023-04-24T22:41:43.247Z,11.45
2023-04-24T22:44:11.044Z,11.19
2023-04-24T22:46:38.414Z,10.80
2023-04-24T22:49:05.752Z,10.79
2023-04-24T22:51:35.795Z,11.03
2023-04-24T22:54:03.824Z,10.83
2023-04-24T22:56:32.201Z,10.97
2023-04-24T22:58:59.937Z,10.69
2023-04-24T23:01:27.385Z,10.53
2023-04-24T23:03:55.100Z,10.72
2023-04-24T23:06:22.504Z,10.80
2023-04-24T23:08:49.784Z,11.05
2023-04-24T23:11:17.385Z,10.93
2023-04-24T23:13:44.684Z,10.77
2023-04-24T23:16:11.909Z,10.74
2023-04-24T23:18:39.333Z,10.83
2023-04-24T23:21:06.715Z,10.68
2023-04-24T23:23:34.045Z,10.62
2023-04-24T23:26:01.459Z,10.68
2023-04-24T23:28:28.671Z,10.86
2023-04-24T23:30:56.163Z,10.91
2023-04-24T23:33:23.516Z,10.73
2023-04-24T23:35:51.218Z,10.81
2023-04-24T23:38:18.457Z,10.94
2023-04-24T23:40:45.872Z,10.75
2023-04-24T23:43:13.164Z,10.61
2023-04-24T23:45:40.560Z,10.78
2023-04-24T23:48:07.967Z,10.73
2023-04-24T23:50:35.394Z,10.53
2023-04-24T23:53:02.705Z,10.59
2023-04-24T23:55:30.009Z,10.49
2023-04-24T23:57:57.423Z,10.52
